Time;durP1;ratioP1;P1;durP2;ratioP2;P2;SDS_P1;SDS_P2;PMS_P1;PMS_P2;Temp;Humidity;BMP_temperature;BMP_pressure;BME280_temperature;BME280_humidity;BME280_pressure;Samples;Min_cycle;Max_cycle;Signal;HPM_P1;HPM_P2
2022/10/23 00:01:02;;;;;;;;;;;;;;;19.85;64.78;101042.78;7398840;19;1952;-35
2022/10/23 00:03:31;;;;;;;;;;;;;;;19.84;64.61;101016.94;7401152;19;2095;-36
2022/10/23 00:05:59;;;;;;;;;;;;;;;19.84;64.78;101020.47;7396644;19;1585;-35
2022/10/23 00:08:27;;;;;;;;;;;;;;;19.83;64.55;101029.47;7400380;19;1669;-36
2022/10/23 00:10:58;;;;;;;;;;;;;;;19.83;64.73;101024.13;7396394;19;1592;-36
2022/10/23 00:13:26;;;;;;;;;;;;;;;19.82;64.87;101033.16;7399672;19;1623;-35
2022/10/23 00:15:55;;;;;;;;;;;;;;;19.82;64.75;101022.44;7400448;19;2211;-35
2022/10/23 00:18:23;;;;;;;;;;;;;;;19.78;64.93;101012.94;7399499;19;1651;-35
2022/10/23 00:20:51;;;;;;;;;;;;;;;19.81;64.99;101018.03;7400027;19;1821;-37
2022/10/23 00:23:19;;;;;;;;;;;;;;;19.80;64.77;101008.31;7400903;19;1465;-35
2022/10/23 00:25:48;;;;;;;;;;;;;;;19.77;64.39;101003.19;7401443;19;1806;-35
2022/10/23 00:28:19;;;;;;;;;;;;;;;19.77;64.90;101003.19;7399947;19;1871;-35
2022/10/23 00:30:47;;;;;;;;;;;;;;;19.76;64.55;101012.25;7401682;19;1743;-35
2022/10/23 00:33:15;;;;;;;;;;;;;;;19.77;64.43;100996.97;7401189;19;1583;-35
2022/10/23 00:35:44;;;;;;;;;;;;;;;19.80;64.57;100994.88;7400855;19;1805;-36
2022/10/23 00:38:12;;;;;;;;;;;;;;;19.78;64.43;100988.81;7401717;19;1591;-35
2022/10/23 00:40:42;;;;;;;;;;;;;;;19.76;64.62;100976.50;7401505;19;2193;-37
2022/10/23 00:43:18;;;;;;;;;;;;;;;19.77;64.11;100980.88;7401909;19;1595;-35
2022/10/23 00:45:49;;;;;;;;;;;;;;;19.79;64.32;100985.13;7400258;19;2050;-35
2022/10/23 00:48:18;;;;;;;;;;;;;;;19.79;64.56;100986.97;7399064;19;1847;-35
2022/10/23 00:50:48;;;;;;;;;;;;;;;19.77;64.29;100997.81;7401873;19;1662;-35
2022/10/23 00:53:17;;;;;;;;;;;;;;;19.81;64.39;100998.41;7399146;19;1571;-35
2022/10/23 00:55:46;;;;;;;;;;;;;;;19.84;64.71;100998.16;7400242;19;1457;-35
2022/10/23 00:58:14;;;;;;;;;;;;;;;19.79;64.80;101013.78;7404935;19;1583;-35
2022/10/23 01:00:44;;;;;;;;;;;;;;;19.75;64.43;100986.38;7409763;19;1763;-35
2022/10/23 01:03:15;;;;;;;;;;;;;;;19.92;64.80;100994.78;7407898;19;1521;-35
2022/10/23 01:05:47;;;;;;;;;;;;;;;20.54;63.33;101014.28;7408387;19;1578;-36
2022/10/23 01:08:19;;;;;;;;;;;;;;;21.02;61.86;101022.38;7408931;19;2236;-35
2022/10/23 01:10:49;;;;;;;;;;;;;;;21.59;60.77;100990.16;7408185;19;1591;-35
2022/10/23 01:13:21;;;;;;;;;;;;;;;21.85;60.06;100986.81;7408553;19;1563;-35
2022/10/23 01:15:53;;;;;;;;;;;;;;;21.87;60.08;100994.75;7408002;19;1580;-35
2022/10/23 01:18:27;;;;;;;;;;;;;;;21.81;60.03;101001.56;7407251;19;1582;-35
2022/10/23 01:21:01;;;;;;;;;;;;;;;21.63;60.80;101010.41;7408017;19;1550;-36
2022/10/23 01:23:48;;;;;;;;;;;;;;;21.55;61.08;101001.38;7405582;19;1555;-35
2022/10/23 01:26:33;;;;;;;;;;;;;;;21.47;61.23;101004.81;7407403;19;1811;-35
2022/10/23 01:29:06;;;;;;;;;;;;;;;21.56;61.25;101011.97;7406761;19;1662;-34
2022/10/23 01:31:37;;;;;;;;;;;;;;;21.71;60.69;101016.91;7407871;19;1474;-36
2022/10/23 01:34:07;;;;;;;;;;;;;;;21.81;60.30;101007.78;7407874;19;1664;-36
2022/10/23 01:36:37;;;;;;;;;;;;;;;22.00;59.90;101022.16;7406571;19;1657;-35
2022/10/23 01:39:09;;;;;;;;;;;;;;;21.93;60.31;101013.84;7407860;19;1792;-35
2022/10/23 01:41:41;;;;;;;;;;;;;;;21.91;60.24;101015.00;7405429;19;1802;-35
2022/10/23 01:44:13;;;;;;;;;;;;;;;21.87;60.57;101016.28;7406342;19;1617;-35
2022/10/23 01:46:43;;;;;;;;;;;;;;;21.81;60.37;101015.03;7405776;19;1854;-38
2022/10/23 01:49:13;;;;;;;;;;;;;;;21.79;60.72;101015.16;7406393;19;1647;-37
2022/10/23 01:51:43;;;;;;;;;;;;;;;21.75;60.84;101024.53;7406452;19;1670;-35
2022/10/23 01:54:13;;;;;;;;;;;;;;;21.79;60.34;101020.56;7406898;19;1614;-35
2022/10/23 01:56:44;;;;;;;;;;;;;;;21.96;60.27;101023.44;7406134;19;1632;-35
2022/10/23 01:59:18;;;;;;;;;;;;;;;22.14;59.79;101016.25;7405610;19;1612;-35
2022/10/23 02:01:48;;;;;;;;;;;;;;;22.15;59.67;101025.22;7395672;19;1910;-72
2022/10/23 02:04:20;;;;;;;;;;;;;;;22.12;59.83;101010.19;7406875;19;1417;-72
2022/10/23 02:06:49;;;;;;;;;;;;;;;22.01;60.17;101029.25;7408857;19;1838;-72
2022/10/23 02:09:17;;;;;;;;;;;;;;;22.00;60.08;101033.78;7409823;19;999;-72
2022/10/23 02:11:50;;;;;;;;;;;;;;;21.98;60.34;101024.16;7406178;19;1801;-69
2022/10/23 02:14:26;;;;;;;;;;;;;;;21.95;60.53;101035.22;7408712;19;1517;-72
2022/10/23 02:16:55;;;;;;;;;;;;;;;21.94;60.25;101030.84;7409116;19;1603;-70
2022/10/23 02:19:27;;;;;;;;;;;;;;;22.00;60.42;101027.53;7408380;19;1523;-68
2022/10/23 02:21:58;;;;;;;;;;;;;;;21.97;60.47;101031.38;7408999;19;1543;-68
2022/10/23 02:24:30;;;;;;;;;;;;;;;21.95;60.36;101019.06;7409860;19;1355;-68
2022/10/23 02:27:01;;;;;;;;;;;;;;;21.97;60.11;101026.00;7406942;19;1840;-68
2022/10/23 02:29:34;;;;;;;;;;;;;;;21.96;60.22;101043.13;7408729;19;1636;-69
2022/10/23 02:32:03;;;;;;;;;;;;;;;21.99;60.45;101048.25;7409419;19;1299;-68
2022/10/23 02:34:31;;;;;;;;;;;;;;;21.97;60.27;101054.78;7406282;19;1538;-68
2022/10/23 02:36:59;;;;;;;;;;;;;;;22.05;60.26;101065.66;7408135;19;1402;-72
2022/10/23 02:39:29;;;;;;;;;;;;;;;22.07;60.32;101082.50;7406847;19;1484;-68
2022/10/23 02:42:00;;;;;;;;;;;;;;;22.06;60.16;101070.03;7408050;19;1720;-68
2022/10/23 02:44:40;;;;;;;;;;;;;;;22.04;60.19;101051.34;7408372;19;1456;-69
2022/10/23 02:47:14;;;;;;;;;;;;;;;22.04;60.15;101072.03;7407705;19;1838;-68
2022/10/23 02:49:46;;;;;;;;;;;;;;;21.99;60.32;101080.56;7408670;19;1631;-68
2022/10/23 02:52:16;;;;;;;;;;;;;;;22.02;60.19;101064.13;7406473;19;2069;-69
2022/10/23 02:54:51;;;;;;;;;;;;;;;22.06;60.26;101075.41;7408475;19;1746;-68
2022/10/23 02:57:24;;;;;;;;;;;;;;;22.07;60.00;101077.13;7407445;19;1668;-72
2022/10/23 03:00:00;;;;;;;;;;;;;;;22.09;60.23;101083.22;7407821;19;1629;-70
2022/10/23 03:02:33;;;;;;;;;;;;;;;22.14;60.08;101064.75;7405686;19;1555;-71
2022/10/23 03:05:02;;;;;;;;;;;;;;;22.11;60.22;101073.13;7407528;19;1495;-69
2022/10/23 03:07:30;;;;;;;;;;;;;;;22.09;60.03;101072.44;7406182;19;1872;-68
2022/10/23 03:09:59;;;;;;;;;;;;;;;22.10;60.02;101079.50;7408158;19;1347;-68
2022/10/23 03:12:27;;;;;;;;;;;;;;;22.15;60.09;101079.91;7406775;19;1498;-68
2022/10/23 03:14:58;;;;;;;;;;;;;;;22.14;60.03;101078.22;7406529;19;1359;-71
2022/10/23 03:17:27;;;;;;;;;;;;;;;22.17;59.85;101075.22;7406412;19;1301;-68
2022/10/23 03:19:55;;;;;;;;;;;;;;;22.15;60.07;101068.31;7406522;19;1243;-72
2022/10/23 03:22:23;;;;;;;;;;;;;;;22.09;60.25;101085.91;7404428;19;1365;-72
2022/10/23 03:24:52;;;;;;;;;;;;;;;22.18;59.86;101076.06;7405017;19;1469;-72
2022/10/23 03:27:20;;;;;;;;;;;;;;;22.16;59.96;101073.56;7405905;19;1861;-72
2022/10/23 03:29:48;;;;;;;;;;;;;;;22.22;59.85;101080.16;7405919;19;1331;-72
2022/10/23 03:32:19;;;;;;;;;;;;;;;22.21;59.94;101079.31;7407192;19;1360;-68
2022/10/23 03:34:48;;;;;;;;;;;;;;;22.21;59.91;101083.88;7406614;19;1414;-71
2022/10/23 03:37:16;;;;;;;;;;;;;;;22.23;59.82;101077.34;7405747;19;1184;-69
2022/10/23 03:39:44;;;;;;;;;;;;;;;22.21;60.00;101071.25;7406934;19;1379;-72
2022/10/23 03:42:13;;;;;;;;;;;;;;;22.22;59.72;101086.44;7406178;19;1517;-71
2022/10/23 03:44:41;;;;;;;;;;;;;;;22.34;59.69;101081.72;7405528;19;1183;-72
2022/10/23 03:47:10;;;;;;;;;;;;;;;22.28;60.05;101074.22;7405921;19;1357;-69
2022/10/23 03:49:42;;;;;;;;;;;;;;;22.31;59.58;101084.69;7404414;19;1834;-72
2022/10/23 03:52:12;;;;;;;;;;;;;;;22.38;59.71;101074.16;7406964;19;1395;-72
2022/10/23 03:54:40;;;;;;;;;;;;;;;22.40;59.55;101077.56;7404630;19;1647;-68
2022/10/23 03:57:08;;;;;;;;;;;;;;;22.33;59.85;101076.47;7406420;19;1599;-68
2022/10/23 03:59:37;;;;;;;;;;;;;;;22.41;59.80;101100.81;7406536;19;1657;-68
2022/10/23 04:02:05;;;;;;;;;;;;;;;22.31;59.91;101089.25;7405235;19;1603;-72
2022/10/23 04:04:34;;;;;;;;;;;;;;;22.36;59.79;101109.38;7403767;19;1621;-72
2022/10/23 04:07:04;;;;;;;;;;;;;;;22.42;59.77;101114.16;7405713;19;1356;-72
2022/10/23 04:09:33;;;;;;;;;;;;;;;22.38;59.47;101099.28;7404542;19;1820;-72
2022/10/23 04:12:01;;;;;;;;;;;;;;;22.38;59.67;101103.81;7403648;19;1683;-68
2022/10/23 04:14:30;;;;;;;;;;;;;;;22.43;59.42;101104.22;7404255;19;1347;-69
2022/10/23 04:16:58;;;;;;;;;;;;;;;22.22;60.66;101113.38;7404825;19;1592;-69
2022/10/23 04:19:26;;;;;;;;;;;;;;;22.34;61.01;101099.72;7402812;19;1500;-69
2022/10/23 04:21:55;;;;;;;;;;;;;;;22.48;60.53;101107.28;7403252;19;1353;-68
2022/10/23 04:24:27;;;;;;;;;;;;;;;22.46;59.78;101117.38;7405235;19;1432;-64
2022/10/23 04:26:55;;;;;;;;;;;;;;;22.42;60.45;101102.50;7403711;19;1282;-64
2022/10/23 04:29:24;;;;;;;;;;;;;;;22.45;61.15;101118.38;7399291;19;1845;-66
2022/10/23 04:31:53;;;;;;;;;;;;;;;22.47;60.46;101108.31;7400243;19;1318;-67
2022/10/23 04:34:21;;;;;;;;;;;;;;;22.43;60.64;101104.22;7401072;19;1300;-68
2022/10/23 04:36:49;;;;;;;;;;;;;;;22.47;60.89;101105.59;7403564;19;1336;-74
2022/10/23 04:39:19;;;;;;;;;;;;;;;22.60;60.39;101111.50;7405238;19;1087;-80
2022/10/23 04:41:52;;;;;;;;;;;;;;;22.39;60.69;101106.34;7404187;19;1474;-74
2022/10/23 04:44:21;;;;;;;;;;;;;;;22.38;60.73;101093.03;7402173;19;1476;-71
2022/10/23 04:46:49;;;;;;;;;;;;;;;22.44;60.44;101084.34;7401887;19;1423;-73
2022/10/23 04:49:17;;;;;;;;;;;;;;;22.17;61.22;101115.63;7401230;19;1868;-67
2022/10/23 04:51:46;;;;;;;;;;;;;;;22.19;61.70;101124.41;7403780;19;1381;-68
2022/10/23 04:54:14;;;;;;;;;;;;;;;22.24;61.66;101132.94;7403808;19;1311;-68
2022/10/23 04:56:42;;;;;;;;;;;;;;;22.22;61.90;101151.06;7403431;19;1643;-67
2022/10/23 04:59:13;;;;;;;;;;;;;;;22.34;61.79;101148.22;7402788;19;1381;-71
2022/10/23 05:01:42;;;;;;;;;;;;;;;22.38;62.32;101147.78;7403240;19;1363;-78
2022/10/23 05:04:12;;;;;;;;;;;;;;;22.46;62.07;101148.88;7403230;19;1444;-71
2022/10/23 05:06:44;;;;;;;;;;;;;;;22.50;62.49;101163.75;7401261;19;1257;-73
2022/10/23 05:09:14;;;;;;;;;;;;;;;22.22;62.58;101156.47;7402444;19;1871;-77
2022/10/23 05:11:43;;;;;;;;;;;;;;;22.00;63.38;101165.75;7403063;19;1291;-77
2022/10/23 05:14:14;;;;;;;;;;;;;;;21.73;64.24;101165.66;7404147;19;1317;-68
2022/10/23 05:16:44;;;;;;;;;;;;;;;21.59;64.43;101158.88;7403775;19;1323;-70
2022/10/23 05:19:15;;;;;;;;;;;;;;;21.46;64.86;101151.06;7397615;19;1366;-68
2022/10/23 05:21:43;;;;;;;;;;;;;;;21.42;65.22;101161.22;7401021;19;1194;-73
2022/10/23 05:24:12;;;;;;;;;;;;;;;21.40;65.43;101170.44;7401336;19;1212;-76
2022/10/23 05:26:40;;;;;;;;;;;;;;;21.38;65.33;101167.88;7401994;19;1334;-72
2022/10/23 05:29:09;;;;;;;;;;;;;;;21.36;65.88;101172.56;7400384;19;1850;-65
2022/10/23 05:31:40;;;;;;;;;;;;;;;21.25;65.53;101165.50;7403373;19;1449;-67
2022/10/23 05:34:08;;;;;;;;;;;;;;;21.34;65.98;101182.63;7398338;19;1387;-73
2022/10/23 05:36:38;;;;;;;;;;;;;;;21.33;64.30;101191.69;7401627;19;1594;-79
2022/10/23 05:39:07;;;;;;;;;;;;;;;21.29;64.87;101190.28;7404474;19;1612;-77
2022/10/23 05:41:35;;;;;;;;;;;;;;;21.32;64.71;101197.22;7399997;19;1737;-69
2022/10/23 05:44:03;;;;;;;;;;;;;;;21.24;65.47;101206.81;7399258;19;1570;-67
2022/10/23 05:46:32;;;;;;;;;;;;;;;21.26;65.13;101204.00;7409107;19;1466;-68
2022/10/23 05:49:03;;;;;;;;;;;;;;;21.28;65.23;101209.25;7409215;19;1877;-72
2022/10/23 05:51:31;;;;;;;;;;;;;;;21.30;65.00;101216.16;7411453;19;1795;-66
2022/10/23 05:53:59;;;;;;;;;;;;;;;21.29;65.84;101214.50;7407975;19;1762;-69
2022/10/23 05:56:28;;;;;;;;;;;;;;;21.33;65.58;101221.28;7408204;19;1522;-68
2022/10/23 05:58:56;;;;;;;;;;;;;;;21.28;65.32;101236.97;7409091;19;1818;-69
2022/10/23 06:01:24;;;;;;;;;;;;;;;21.33;65.65;101250.00;7406312;19;1567;-68
2022/10/23 06:03:53;;;;;;;;;;;;;;;21.43;65.29;101259.84;7404213;19;1625;-68
2022/10/23 06:06:24;;;;;;;;;;;;;;;21.36;65.48;101250.59;7409054;19;1346;-68
2022/10/23 06:08:52;;;;;;;;;;;;;;;21.31;65.38;101251.97;7409570;19;1869;-71
2022/10/23 06:11:21;;;;;;;;;;;;;;;21.25;65.63;101261.47;7407755;19;1573;-70
2022/10/23 06:13:49;;;;;;;;;;;;;;;21.23;65.68;101260.78;7409283;19;1282;-72
2022/10/23 06:16:18;;;;;;;;;;;;;;;21.21;65.47;101260.06;7408146;19;1306;-70
2022/10/23 06:18:47;;;;;;;;;;;;;;;21.18;65.72;101263.00;7406315;19;1324;-69
2022/10/23 06:21:17;;;;;;;;;;;;;;;21.16;65.72;101276.59;7405382;19;1457;-70
2022/10/23 06:23:48;;;;;;;;;;;;;;;21.15;65.92;101279.41;7407194;19;1271;-69
2022/10/23 06:26:18;;;;;;;;;;;;;;;21.13;65.42;101294.84;7408117;19;1380;-69
2022/10/23 06:28:47;;;;;;;;;;;;;;;21.17;65.63;101305.19;7408514;19;1850;-69
2022/10/23 06:31:17;;;;;;;;;;;;;;;21.17;65.87;101307.03;7407118;19;1506;-69
2022/10/23 06:33:46;;;;;;;;;;;;;;;21.18;65.28;101300.66;7406952;19;1571;-73
2022/10/23 06:36:14;;;;;;;;;;;;;;;21.08;63.75;101316.75;7407324;19;1573;-73
2022/10/23 06:38:43;;;;;;;;;;;;;;;21.06;64.71;101308.81;7405161;19;1610;-72
2022/10/23 06:41:17;;;;;;;;;;;;;;;21.08;64.72;101300.63;7409021;19;1568;-72
2022/10/23 06:43:46;;;;;;;;;;;;;;;21.10;64.78;101319.31;7407429;19;1427;-73
2022/10/23 06:46:14;;;;;;;;;;;;;;;20.95;63.99;101305.38;7408717;19;1526;-72
2022/10/23 06:48:42;;;;;;;;;;;;;;;20.96;62.84;101301.72;7408360;19;1866;-73
2022/10/23 06:51:12;;;;;;;;;;;;;;;21.01;63.54;101315.63;7408594;19;1596;-72
2022/10/23 06:53:40;;;;;;;;;;;;;;;21.04;63.79;101329.63;7407653;19;1792;-72
2022/10/23 06:56:09;;;;;;;;;;;;;;;21.05;64.01;101320.59;7406812;19;1353;-70
2022/10/23 06:58:41;;;;;;;;;;;;;;;21.07;64.07;101336.59;7408980;19;1718;-69
2022/10/23 07:01:10;;;;;;;;;;;;;;;21.08;64.14;101324.00;7411533;19;1603;-70
2022/10/23 07:03:38;;;;;;;;;;;;;;;21.01;64.39;101332.59;7409129;19;1781;-69
2022/10/23 07:06:08;;;;;;;;;;;;;;;20.97;63.85;101325.78;7405667;19;1572;-68
2022/10/23 07:08:37;;;;;;;;;;;;;;;21.00;63.28;101330.88;7406517;19;1873;-69
2022/10/23 07:11:06;;;;;;;;;;;;;;;21.02;62.97;101344.19;7404675;19;1308;-69
2022/10/23 07:13:34;;;;;;;;;;;;;;;21.01;62.82;101347.91;7408550;19;1251;-69
2022/10/23 07:16:13;;;;;;;;;;;;;;;21.02;62.20;101339.66;7408343;19;1431;-69
2022/10/23 07:18:41;;;;;;;;;;;;;;;21.09;61.91;101345.38;7407110;19;1899;-68
2022/10/23 07:21:09;;;;;;;;;;;;;;;20.95;62.18;101354.66;7408834;19;1697;-69
2022/10/23 07:23:38;;;;;;;;;;;;;;;20.92;62.03;101349.53;7410219;19;1383;-69
2022/10/23 07:26:07;;;;;;;;;;;;;;;20.88;61.67;101342.72;7410156;19;1322;-69
2022/10/23 07:28:36;;;;;;;;;;;;;;;20.88;61.57;101347.25;7412028;19;1845;-69
2022/10/23 07:31:05;;;;;;;;;;;;;;;20.95;60.78;101354.66;7408752;19;1705;-69
2022/10/23 07:33:36;;;;;;;;;;;;;;;20.94;60.37;101344.88;7409826;19;1555;-70
2022/10/23 07:36:05;;;;;;;;;;;;;;;20.98;60.33;101353.53;7406635;19;1477;-69
2022/10/23 07:38:34;;;;;;;;;;;;;;;21.00;60.20;101341.63;7408953;19;1508;-70
2022/10/23 07:41:03;;;;;;;;;;;;;;;20.98;60.08;101335.53;7407634;19;1576;-70
2022/10/23 07:43:32;;;;;;;;;;;;;;;20.95;58.88;101343.03;7409374;19;1509;-68
2022/10/23 07:46:01;;;;;;;;;;;;;;;20.94;60.44;101320.66;7410278;19;1663;-69
2022/10/23 07:48:29;;;;;;;;;;;;;;;20.95;59.83;101348.41;7409414;19;1760;-68
2022/10/23 07:51:06;;;;;;;;;;;;;;;20.99;59.81;101352.53;7406284;19;1863;-69
2022/10/23 07:53:35;;;;;;;;;;;;;;;21.05;59.39;101350.16;7406954;19;1483;-69
2022/10/23 07:56:05;;;;;;;;;;;;;;;21.09;59.59;101358.81;7409893;19;1348;-70
2022/10/23 07:58:33;;;;;;;;;;;;;;;21.04;59.51;101343.06;7407257;19;1382;-70
2022/10/23 08:01:02;;;;;;;;;;;;;;;21.09;59.37;101350.75;7406381;19;1611;-69
2022/10/23 08:03:33;;;;;;;;;;;;;;;21.06;59.25;101340.25;7408391;19;1671;-70
2022/10/23 08:06:04;;;;;;;;;;;;;;;21.08;59.44;101349.03;7407808;19;1550;-69
2022/10/23 08:08:33;;;;;;;;;;;;;;;21.06;59.51;101354.53;7405127;19;1567;-69
2022/10/23 08:11:01;;;;;;;;;;;;;;;21.07;59.53;101347.34;7407655;19;1862;-70
2022/10/23 08:13:29;;;;;;;;;;;;;;;21.06;59.43;101357.22;7406223;19;1520;-70
2022/10/23 08:15:58;;;;;;;;;;;;;;;21.05;59.47;101360.91;7407923;19;1608;-70
2022/10/23 08:18:26;;;;;;;;;;;;;;;20.99;59.16;101366.84;7405202;19;1691;-69
2022/10/23 08:20:55;;;;;;;;;;;;;;;21.00;59.27;101381.13;7407958;19;1648;-69
2022/10/23 08:23:26;;;;;;;;;;;;;;;21.06;58.74;101372.53;7407140;19;1603;-69
2022/10/23 08:25:59;;;;;;;;;;;;;;;21.04;58.69;101369.97;7407506;19;1573;-69
2022/10/23 08:28:27;;;;;;;;;;;;;;;21.03;58.49;101362.91;7406882;19;1726;-69
2022/10/23 08:30:56;;;;;;;;;;;;;;;21.11;58.64;101386.44;7406369;19;1864;-70
2022/10/23 08:33:24;;;;;;;;;;;;;;;21.05;58.57;101371.69;7405497;19;1734;-69
2022/10/23 08:35:53;;;;;;;;;;;;;;;21.08;58.10;101375.09;7407120;19;1504;-69
2022/10/23 08:38:22;;;;;;;;;;;;;;;21.06;58.28;101381.44;7407693;19;1528;-69
2022/10/23 08:40:53;;;;;;;;;;;;;;;21.10;57.92;101378.50;7403882;19;1601;-69
2022/10/23 08:43:23;;;;;;;;;;;;;;;21.09;57.99;101361.50;7406433;19;1533;-69
2022/10/23 08:45:54;;;;;;;;;;;;;;;21.13;57.61;101372.81;7405139;19;1770;-69
2022/10/23 08:48:26;;;;;;;;;;;;;;;21.17;57.71;101355.44;7407950;19;1402;-66
2022/10/23 08:50:58;;;;;;;;;;;;;;;21.16;57.30;101373.41;7409575;19;1834;-70
2022/10/23 08:53:29;;;;;;;;;;;;;;;21.15;57.96;101378.91;7410583;19;1541;-69
2022/10/23 08:56:03;;;;;;;;;;;;;;;21.17;57.77;101368.88;7408340;19;1532;-69
2022/10/23 08:58:36;;;;;;;;;;;;;;;21.16;57.46;101377.94;7407057;19;1515;-70
2022/10/23 09:01:13;;;;;;;;;;;;;;;21.15;57.31;101378.91;7406504;19;1679;-69
2022/10/23 09:03:44;;;;;;;;;;;;;;;21.13;57.37;101362.94;7414713;19;1647;-71
2022/10/23 09:06:18;;;;;;;;;;;;;;;21.17;57.29;101369.75;7404299;19;1615;-70
2022/10/23 09:08:49;;;;;;;;;;;;;;;21.17;56.85;101368.88;7402284;19;1684;-70
2022/10/23 09:11:26;;;;;;;;;;;;;;;21.17;57.10;101368.88;7401046;19;1845;-69
2022/10/23 09:14:04;;;;;;;;;;;;;;;21.11;56.99;101364.03;7402758;19;1627;-70
2022/10/23 09:16:39;;;;;;;;;;;;;;;21.12;56.57;101360.38;7402904;19;1692;-69
2022/10/23 09:19:12;;;;;;;;;;;;;;;21.12;56.75;101365.75;7408712;19;1537;-72
2022/10/23 09:21:40;;;;;;;;;;;;;;;21.21;56.69;101367.66;7409496;19;1483;-70
2022/10/23 09:24:13;;;;;;;;;;;;;;;21.25;55.68;101361.00;7412906;19;1694;-71
2022/10/23 09:26:47;;;;;;;;;;;;;;;21.26;57.22;101349.25;7409157;19;1627;-66
2022/10/23 09:29:20;;;;;;;;;;;;;;;21.34;57.25;101364.72;7412336;19;1856;-62
2022/10/23 09:31:53;;;;;;;;;;;;;;;21.50;56.71;101358.84;7409965;19;1795;-68
2022/10/23 09:34:23;;;;;;;;;;;;;;;21.49;57.35;101359.81;7410738;19;1818;-67
2022/10/23 09:36:53;;;;;;;;;;;;;;;21.51;57.19;101352.50;7411067;19;1463;-64
2022/10/23 09:39:26;;;;;;;;;;;;;;;21.56;57.34;101358.28;7412371;19;1062;-68
2022/10/23 09:42:01;;;;;;;;;;;;;;;21.52;57.05;101356.88;7417505;19;1375;-75
2022/10/23 09:44:30;;;;;;;;;;;;;;;21.54;56.92;101355.72;7414606;19;1223;-68
2022/10/23 09:47:03;;;;;;;;;;;;;;;21.55;57.12;101345.84;7415389;19;1235;-71
2022/10/23 09:49:32;;;;;;;;;;;;;;;21.61;57.03;101356.06;7414116;19;1846;-68
2022/10/23 09:52:03;;;;;;;;;;;;;;;21.66;56.69;101367.22;7412020;19;1276;-69
2022/10/23 09:54:32;;;;;;;;;;;;;;;21.62;56.58;101341.59;7414170;19;1672;-74
2022/10/23 09:57:06;;;;;;;;;;;;;;;21.67;57.86;101344.72;7414487;19;1645;-72
2022/10/23 09:59:35;;;;;;;;;;;;;;;21.62;58.47;101352.34;7413579;19;1540;-68
2022/10/23 10:02:05;;;;;;;;;;;;;;;21.58;58.67;101341.00;7408352;19;1427;-68
2022/10/23 10:04:38;;;;;;;;;;;;;;;21.56;58.44;101326.84;7404261;19;1423;-70
2022/10/23 10:07:08;;;;;;;;;;;;;;;21.67;57.06;101338.50;7410616;19;1528;-63
2022/10/23 10:09:36;;;;;;;;;;;;;;;21.55;56.80;101318.94;7412571;19;1852;-66
2022/10/23 10:12:17;;;;;;;;;;;;;;;21.53;56.74;101315.53;7409408;19;1761;-66
2022/10/23 10:14:50;;;;;;;;;;;;;;;21.62;57.08;101325.44;7405254;19;1790;-66
2022/10/23 10:17:23;;;;;;;;;;;;;;;21.71;57.07;101340.75;7406919;19;1228;-67
2022/10/23 10:19:59;;;;;;;;;;;;;;;21.69;56.80;101321.22;6890438;19;10000557;-66
2022/10/23 10:22:30;;;;;;;;;;;;;;;21.75;56.72;101325.19;7404837;19;1517;-67
2022/10/23 10:25:03;;;;;;;;;;;;;;;21.74;56.42;101318.09;7407688;19;1358;-76
2022/10/23 10:27:44;;;;;;;;;;;;;;;21.64;56.89;101312.69;7406199;19;1707;-67
2022/10/23 10:30:15;;;;;;;;;;;;;;;21.58;56.35;101307.88;7396840;19;1845;-66
2022/10/23 10:32:47;;;;;;;;;;;;;;;21.53;55.99;101305.59;7401056;19;1623;-66
2022/10/23 10:35:21;;;;;;;;;;;;;;;21.63;55.76;101309.16;7402797;19;1430;-68
2022/10/23 10:37:59;;;;;;;;;;;;;;;21.61;56.09;101310.28;7408788;19;1450;-67
2022/10/23 10:40:29;;;;;;;;;;;;;;;21.61;55.97;101304.91;7405855;19;1159;-67
2022/10/23 10:43:10;;;;;;;;;;;;;;;21.63;55.61;101295.69;7413156;19;1378;-68
2022/10/23 10:45:40;;;;;;;;;;;;;;;21.63;55.68;101300.25;7415986;19;1287;-69
2022/10/23 10:48:14;;;;;;;;;;;;;;;21.57;55.60;101292.72;7415258;19;1699;-69
2022/10/23 10:50:45;;;;;;;;;;;;;;;21.54;55.36;101274.16;7412040;19;1841;-70
2022/10/23 10:53:20;;;;;;;;;;;;;;;21.57;55.27;101285.50;7412639;19;1592;-70
2022/10/23 10:55:52;;;;;;;;;;;;;;;21.62;55.02;101314.66;7408754;19;1688;-66
2022/10/23 10:58:26;;;;;;;;;;;;;;;21.67;54.79;101288.19;7407399;19;1378;-66
2022/10/23 11:00:57;;;;;;;;;;;;;;;21.67;54.83;101300.81;7410234;19;1413;-65
2022/10/23 11:03:30;;;;;;;;;;;;;;;21.63;54.53;101297.53;7406516;19;1707;-71
2022/10/23 11:05:59;;;;;;;;;;;;;;;21.68;54.78;101297.13;7409433;19;1608;-63
2022/10/23 11:08:32;;;;;;;;;;;;;;;21.60;54.39;101279.81;7408895;19;1603;-76
2022/10/23 11:11:03;;;;;;;;;;;;;;;21.57;55.24;101293.56;7408818;19;1858;-66
2022/10/23 11:13:36;;;;;;;;;;;;;;;21.54;54.79;101290.31;7415051;19;1610;-68
2022/10/23 11:16:06;;;;;;;;;;;;;;;21.57;55.15;101300.81;7408047;19;1548;-72
2022/10/23 11:18:36;;;;;;;;;;;;;;;21.53;54.86;101292.16;7410454;19;1643;-70
2022/10/23 11:21:11;;;;;;;;;;;;;;;21.44;54.28;101277.66;7410535;19;2024;-70
2022/10/23 11:23:50;;;;;;;;;;;;;;;21.53;53.99;101286.78;7411558;19;1350;-69
2022/10/23 11:26:25;;;;;;;;;;;;;;;21.48;54.51;101280.94;7410863;19;1493;-71
2022/10/23 11:29:09;;;;;;;;;;;;;;;21.51;54.34;101295.97;7411448;19;1536;-70
2022/10/23 11:31:46;;;;;;;;;;;;;;;21.47;53.90;101295.41;7405960;19;1838;-70
2022/10/23 11:34:34;;;;;;;;;;;;;;;21.45;53.36;101292.00;7406869;19;1580;-70
2022/10/23 11:37:04;;;;;;;;;;;;;;;21.39;53.26;101282.59;7406714;19;1607;-71
2022/10/23 11:39:33;;;;;;;;;;;;;;;21.42;52.38;101268.84;7405010;19;1481;-67
2022/10/23 11:42:14;;;;;;;;;;;;;;;21.43;52.25;101289.44;7404166;19;1560;-73
2022/10/23 11:44:44;;;;;;;;;;;;;;;21.44;52.14;101276.81;7411066;19;1445;-69
2022/10/23 11:47:28;;;;;;;;;;;;;;;21.43;51.86;101283.22;7407746;19;1314;-65
2022/10/23 11:50:11;;;;;;;;;;;;;;;21.41;52.07;101280.63;7405793;19;1400;-73
2022/10/23 11:52:42;;;;;;;;;;;;;;;21.40;52.17;101273.53;7405747;19;1356;-66
2022/10/23 11:55:19;;;;;;;;;;;;;;;21.41;52.13;101286.00;7403774;19;1692;-69
2022/10/23 11:58:06;;;;;;;;;;;;;;;21.47;52.18;101283.75;7402781;19;1288;-64
2022/10/23 12:00:36;;;;;;;;;;;;;;;21.38;53.31;101280.88;7403363;19;1359;-78
2022/10/23 12:03:04;;;;;;;;;;;;;;;21.42;52.46;101260.78;7404095;19;1509;-67
2022/10/23 12:05:36;;;;;;;;;;;;;;;21.52;53.25;101271.59;7405445;19;1501;-68
2022/10/23 12:08:09;;;;;;;;;;;;;;;21.53;54.33;101261.72;7404645;19;1343;-68
2022/10/23 12:10:45;;;;;;;;;;;;;;;21.53;58.53;101281.38;7404459;19;1874;-65
2022/10/23 12:13:29;;;;;;;;;;;;;;;21.45;55.61;101249.78;7404312;19;1527;-64
2022/10/23 12:15:58;;;;;;;;;;;;;;;21.47;56.20;101263.09;7409480;19;1504;-69
2022/10/23 12:18:27;;;;;;;;;;;;;;;21.53;56.60;101278.69;7414628;19;1557;-67
2022/10/23 12:20:58;;;;;;;;;;;;;;;21.41;57.33;101263.63;7414197;19;1440;-80
2022/10/23 12:23:44;;;;;;;;;;;;;;;21.33;57.46;101261.63;7419086;19;1443;-81
2022/10/23 12:26:25;;;;;;;;;;;;;;;21.27;57.43;101267.56;7414364;19;1458;-78
2022/10/23 12:29:00;;;;;;;;;;;;;;;21.28;57.00;101258.50;7417963;19;1335;-72
2022/10/23 12:31:34;;;;;;;;;;;;;;;21.25;57.36;101248.88;7417048;19;1811;-75
2022/10/23 12:34:08;;;;;;;;;;;;;;;21.19;55.52;101260.19;7415266;19;1634;-69
2022/10/23 12:36:45;;;;;;;;;;;;;;;21.21;56.82;101257.38;7417604;19;1383;-70
2022/10/23 12:39:28;;;;;;;;;;;;;;;21.26;56.41;101255.09;7418108;19;1481;-71
2022/10/23 12:42:00;;;;;;;;;;;;;;;21.29;56.03;101254.84;7415255;19;1528;-71
2022/10/23 12:44:29;;;;;;;;;;;;;;;21.26;56.25;101263.16;7416998;19;967;-68
2022/10/23 12:46:59;;;;;;;;;;;;;;;21.29;55.88;101264.72;7416304;19;1355;-68
2022/10/23 12:49:30;;;;;;;;;;;;;;;21.24;55.49;101260.63;7416424;19;1357;-68
2022/10/23 12:52:01;;;;;;;;;;;;;;;21.22;56.05;101265.28;7413036;19;1867;-69
2022/10/23 12:54:32;;;;;;;;;;;;;;;21.20;56.38;101261.88;7414128;19;1470;-71
2022/10/23 12:57:03;;;;;;;;;;;;;;;21.19;55.28;101265.56;7416700;19;1520;-76
2022/10/23 12:59:35;;;;;;;;;;;;;;;21.20;55.94;101261.03;7418708;19;1318;-79
2022/10/23 13:02:03;;;;;;;;;;;;;;;21.23;54.82;101272.38;7415132;19;1388;-73
2022/10/23 13:04:32;;;;;;;;;;;;;;;21.25;55.37;101242.66;7415618;19;1494;-75
2022/10/23 13:07:02;;;;;;;;;;;;;;;21.18;55.67;101260.31;7417347;19;1474;-72